Etusivu
METAR-TAF:

METAR-TAF

Lentoasemat :

Kajaanin lentoasema

Kajaani, Suomi

Leveyspiiri: 64-17N, Pituuspiiri: 027-41E, korkeus merenpinnasta: 143 m

Tämänhetkinen sää

Tämä raportti tehtiin 22 minuuttia sitten, kello 17.50 UTC
Tuuli 8 kn etelästä/lounaasta
Lämpötila 0°C
Kosteus 86%
Ilmanpaine 1014 hPa
Näkyvyys 10 km tai enemmän
Muutamia pilviä 1800 ft:n korkeudessa
Pilvistä 2900 ft:n korkeudessa

METAR: EFKI 211750Z AUTO 21008KT 9999 FEW018 OVC029 M00/M02 Q1014

Aika: 21:12 (18:12 UTC)

Sääennuste

Tämä raportti tehtiin 30 minuuttia sitten, kello 17.42 UTC
Ennuste voimassa 21. päivästä klo 18 UTC - 21. päivään klo 21 UTC
Tuuli 6 kn etelästä/lounaasta
Näkyvyys 10 km tai enemmän
Hajonneita pilviä 1500 ft:n korkeudessa
Ajoittain
21. päivästä klo 18 UTC - 21. päivään klo 21 UTC
Näkyvyys: 7000 m
Hajonneita pilviä 1000 ft:n korkeudessa
heikkoa lumisadetta

TAF: EFKI 211742Z 2118/2121 21006KT 9999 BKN015 TEMPO 2118/2121 7000 -SN BKN010

Säähavainnot ja -ennusteet yli 4000 lentoasemalta (METAR- ja TAF-raportit).

Käytössä olevat sääasemat on merkitty karttaan keltaisilla ja punaisilla pisteillä.

Aseta hiiri pisteen päälle nähdäksesi sääaseman nimen.

Klikkaa sitten nähdäksesi säähavainnot ja -ennusteet.

Kartan vaihtaminen: klikkaa mustalla rastilla varustettuja vihreitä pisteitä, niin voit zoomata sisään; viivalla varustettua vihreää pistettä, niin voit zoomata ulos tai vihreitä nuolia, niin pääset viereisille kartoille.


METAR-TAF: